Wilmette, IL

10:42 PM CDT on September 25, 2016 (GMT -0500)
Wilmette, Illinois | | Change Station

Elev 646 ft 42.07 °N, 87.72 °W | Updated 10 seconds ago

Overcast
Overcast
72.1 °F
Feels Like 76 °F
N
0.6
Wind Variable Wind from West

Today
High -- | Low -- °F
--% Chance of Precip.
Yesterday
High -- | Low -- °F
Precip. -- in
Pressure 29.95 in
Visibility 10.0 miles
Clouds Few 2200 ft
Mostly Cloudy 6000 ft
Overcast 8000 ft
Heat Index 76 °F
Dew Point 57 °F
Humidity 64%
Rainfall Not available.
Snow Depth Not available.
6:42 AM 6:42 PM
Waning Crescent, 22% visible
SPECI KPWK 260303Z AUTO 29008G22KT 10SM FEW022 BKN060 OVC080 21/13 A2995 RMK AO2 T02060133
Pressure 29.95 in
Visibility 10.0 miles
Clouds Few 2200 ft
Mostly Cloudy 6000 ft
Overcast 8000 ft
Heat Index 76 °F
Dew Point 57 °F
Humidity 64%
Rainfall Not available.
Snow Depth Not available.
6:42 AM 6:42 PM
Waning Crescent, 22% visible
SPECI KPWK 260303Z AUTO 29008G22KT 10SM FEW022 BKN060 OVC080 21/13 A2995 RMK AO2 T02060133

10-Day Weather Forecast

Almanac

Astronomy

Sep. 25, 2016 Rise Set
Actual Time
Civil Twilight
Nautical Twilight
Astronomical Twilight
Moon
Length of Visible Light
Length of Day
Tomorrow will be .
, % of the Moon is Illuminated

Today's Extremes

State Highs State Lows

Community

WunderPhotos

Upload Photos

1,941,837 photos uploaded!

WunderBlog® & News

Nearby

Air Quality

  Air Quality AQ Index Pollutant
Not available.

Snow Depth

Station Depth Elevation

Earthquake Activity

City Distance Mag. Time & Date
Minimum magnitude displayed is 2.5.

Coastal Water Temperatures

Place Temperature

Stations

Nearby Weather Stations

Station Location Temp. Windchill Dew Point Humidity Wind Precip. Elev Updated Type
                   

Watches & Warnings

There are currently no watches in effect.